Time;durP1;ratioP1;P1;durP2;ratioP2;P2;SDS_P1;SDS_P2;PMS_P1;PMS_P2;Temp;Humidity;BMP_temperature;BMP_pressure;BME280_temperature;BME280_humidity;BME280_pressure;Samples;Min_cycle;Max_cycle;Signal;HPM_P1;HPM_P2
2023/02/19 00:14:31;;;;;;;6.57;2.57;;;;;;;6.07;100.00;99283.25;31218751;28;20447;-79
2023/02/19 00:29:32;;;;;;;12.50;4.37;;;;;;;6.07;100.00;99283.25;31242644;28;20050;-80
2023/02/19 00:44:34;;;;;;;3.37;2.40;;;;;;;5.93;100.00;99288.84;31233992;28;20054;-80
2023/02/19 00:59:36;;;;;;;7.03;3.27;;;;;;;5.54;100.00;99273.94;31250851;28;20427;-79
2023/02/19 01:14:39;;;;;;;4.57;2.83;;;;;;;5.28;100.00;99270.00;31245716;28;20409;-78
2023/02/19 01:29:41;;;;;;;5.83;2.83;;;;;;;5.29;100.00;99254.63;31242829;28;20485;-78
2023/02/19 01:44:46;;;;;;;7.60;2.80;;;;;;;5.26;100.00;99258.88;31248161;28;20045;-78
2023/02/19 01:59:53;;;;;;;5.07;2.90;;;;;;;5.19;100.00;99242.09;31232471;28;20560;-80
2023/02/19 02:14:55;;;;;;;3.23;2.27;;;;;;;4.85;100.00;99258.97;31236375;28;20052;-79
2023/02/19 02:30:12;;;;;;;7.57;3.97;;;;;;;4.77;100.00;99271.69;31223664;28;20124;-80
2023/02/19 02:45:36;;;;;;;15.60;5.50;;;;;;;4.91;100.00;99270.81;31239429;28;20053;-80
2023/02/19 03:31:32;;;;;;;7.23;3.57;;;;;;;5.27;100.00;99306.16;31264208;28;20057;-80
2023/02/19 03:47:02;;;;;;;6.63;2.90;;;;;;;5.41;100.00;99324.88;31219255;28;20058;-80
2023/02/19 04:02:38;;;;;;;8.00;2.83;;;;;;;5.65;100.00;99317.66;31293863;28;20053;-79
2023/02/19 04:17:50;;;;;;;6.17;2.50;;;;;;;5.82;100.00;99316.66;31292425;28;20044;-79
2023/02/19 04:32:52;;;;;;;2.73;1.67;;;;;;;6.09;100.00;99297.84;31261076;28;20049;-80
2023/02/19 04:47:57;;;;;;;6.47;2.23;;;;;;;6.64;100.00;99306.63;31236484;28;20068;-81
2023/02/19 05:03:00;;;;;;;3.63;1.87;;;;;;;6.79;100.00;99314.09;31256162;28;20112;-81
2023/02/19 05:18:02;;;;;;;3.27;1.93;;;;;;;6.90;100.00;99327.38;31236312;28;20072;-79
2023/02/19 05:33:04;;;;;;;6.63;2.93;;;;;;;7.09;100.00;99355.59;31257880;28;20413;-80
2023/02/19 05:48:06;;;;;;;4.77;3.30;;;;;;;6.43;100.00;99335.47;31262522;28;20065;-80
2023/02/19 06:03:08;;;;;;;8.63;3.47;;;;;;;6.51;100.00;99338.81;31234409;28;20058;-81
2023/02/19 06:18:11;;;;;;;6.67;3.63;;;;;;;6.85;100.00;99314.38;31267570;28;20136;-81
2023/02/19 06:33:13;;;;;;;4.30;2.83;;;;;;;6.96;100.00;99330.38;31270179;28;20127;-80
2023/02/19 06:48:14;;;;;;;7.10;3.50;;;;;;;7.21;100.00;99355.00;31291410;28;20072;-78
2023/02/19 07:03:16;;;;;;;8.83;3.53;;;;;;;9.37;100.00;99329.72;31232660;28;20053;-81
2023/02/19 07:18:18;;;;;;;8.60;4.40;;;;;;;9.17;100.00;99338.75;31239517;28;20065;-81
2023/02/19 07:33:20;;;;;;;7.30;4.50;;;;;;;11.70;100.00;99339.78;31232480;28;20065;-76
2023/02/19 07:48:22;;;;;;;5.80;3.20;;;;;;;13.48;100.00;99352.56;31221486;28;20107;-77
2023/02/19 08:03:24;;;;;;;7.30;3.73;;;;;;;14.31;100.00;99356.63;31228308;28;20066;-76
2023/02/19 08:18:29;;;;;;;5.50;2.93;;;;;;;15.41;97.99;99363.41;31212694;28;20053;-77
2023/02/19 08:33:31;;;;;;;6.67;3.43;;;;;;;16.17;87.47;99389.16;31242009;28;20046;-76
2023/02/19 08:48:33;;;;;;;8.63;3.67;;;;;;;16.70;83.28;99400.72;31276232;28;20072;-76
2023/02/19 09:03:35;;;;;;;7.03;3.53;;;;;;;16.73;91.40;99398.25;31241565;28;20497;-76
2023/02/19 09:18:38;;;;;;;9.47;4.80;;;;;;;13.46;100.00;99411.50;31235748;28;20851;-74
2023/02/19 09:33:45;;;;;;;9.60;4.00;;;;;;;13.15;100.00;99400.69;31271969;28;20049;-76
2023/02/19 09:48:47;;;;;;;8.73;3.87;;;;;;;14.17;100.00;99373.66;31235626;28;21816;-75
2023/02/19 10:03:49;;;;;;;5.13;2.87;;;;;;;15.25;92.10;99370.81;31256778;28;20057;-74
2023/02/19 10:18:52;;;;;;;9.13;2.70;;;;;;;13.02;100.00;99364.63;31226131;28;20497;-76
2023/02/19 10:33:57;;;;;;;9.00;3.23;;;;;;;12.36;100.00;99356.75;31263431;28;20123;-83
2023/02/19 10:49:04;;;;;;;7.27;3.20;;;;;;;15.47;88.02;99361.53;31238957;28;20060;-82
2023/02/19 11:04:17;;;;;;;4.87;2.47;;;;;;;14.03;87.23;99373.53;31274982;28;20058;-82
2023/02/19 11:19:25;;;;;;;6.53;2.63;;;;;;;12.36;97.55;99375.81;31216613;28;20042;-82
2023/02/19 11:34:28;;;;;;;5.97;2.20;;;;;;;12.26;90.32;99356.00;31220146;28;20060;-78
2023/02/19 11:50:05;;;;;;;5.90;2.17;;;;;;;11.59;100.00;99372.78;31263650;28;20163;-77
2023/02/19 12:05:30;;;;;;;;;;;;;;;11.28;96.15;99383.56;31285786;28;20045;-80
2023/02/19 12:20:46;;;;;;;6.90;2.10;;;;;;;11.02;100.00;99386.81;31282321;28;20313;-78
2023/02/19 12:36:05;;;;;;;4.07;1.80;;;;;;;10.84;100.00;99365.66;31295335;28;20069;-78
2023/02/19 12:51:21;;;;;;;3.87;1.60;;;;;;;10.91;100.00;99398.00;31257884;28;20054;-78
2023/02/19 13:06:41;;;;;;;5.50;1.73;;;;;;;10.68;100.00;99395.63;31255719;28;20052;-79
2023/02/19 13:37:33;;;;;;;5.70;2.60;;;;;;;10.44;100.00;99412.25;31269136;28;20632;-79
2023/02/19 13:52:43;;;;;;;6.87;2.80;;;;;;;10.28;100.00;99396.06;31250832;28;20061;-78
2023/02/19 14:07:54;;;;;;;7.47;2.63;;;;;;;10.14;100.00;99378.25;31249980;28;20053;-80
2023/02/19 14:23:13;;;;;;;8.07;2.73;;;;;;;9.93;100.00;99382.31;31382793;28;20057;-80
2023/02/19 14:38:21;;;;;;;13.73;4.33;;;;;;;9.75;100.00;99382.06;31248498;28;20041;-79
2023/02/19 14:53:24;;;;;;;11.87;3.63;;;;;;;9.38;100.00;99369.16;31256479;28;22192;-78
2023/02/19 15:08:34;;;;;;;6.73;2.50;;;;;;;9.04;100.00;99373.09;31219827;28;20060;-78
2023/02/19 15:23:37;;;;;;;15.17;5.97;;;;;;;8.82;100.00;99388.34;31235584;28;20406;-78
2023/02/19 15:38:39;;;;;;;4.13;2.50;;;;;;;8.59;100.00;99391.22;31205437;28;20049;-79
2023/02/19 15:53:50;;;;;;;5.73;2.23;;;;;;;8.46;100.00;99400.00;31237987;28;20501;-79
2023/02/19 16:08:53;;;;;;;5.00;2.57;;;;;;;8.36;100.00;99400.97;31167520;28;20552;-78
2023/02/19 16:24:04;;;;;;;5.87;2.07;;;;;;;8.20;100.00;99409.78;31221758;28;20053;-78
2023/02/19 16:39:07;;;;;;;7.10;2.87;;;;;;;8.14;100.00;99411.47;31193739;28;20471;-77
2023/02/19 16:54:09;;;;;;;7.70;2.47;;;;;;;7.94;100.00;99418.06;31252317;28;20049;-76
2023/02/19 17:09:10;;;;;;;7.60;3.27;;;;;;;7.44;100.00;99432.50;31247031;28;20058;-77
2023/02/19 17:24:13;;;;;;;6.17;3.50;;;;;;;7.56;100.00;99442.69;31235558;28;20122;-74
2023/02/19 17:39:15;;;;;;;9.57;3.37;;;;;;;7.37;100.00;99443.41;31215249;28;20494;-74
2023/02/19 17:54:17;;;;;;;10.57;4.03;;;;;;;7.26;100.00;99446.31;31234769;28;20092;-76
2023/02/19 18:09:21;;;;;;;11.67;4.53;;;;;;;7.08;100.00;99460.09;31231989;28;20053;-73
2023/02/19 18:24:23;;;;;;;9.43;5.00;;;;;;;6.76;100.00;99462.50;31211908;28;20452;-76
2023/02/19 18:39:25;;;;;;;13.77;5.10;;;;;;;6.49;100.00;99468.66;31227351;28;20050;-76
2023/02/19 18:54:28;;;;;;;10.37;5.07;;;;;;;6.21;100.00;99470.94;31237056;28;20507;-77
2023/02/19 19:09:30;;;;;;;11.70;4.50;;;;;;;5.89;100.00;99472.09;31224309;28;20057;-78
2023/02/19 19:24:33;;;;;;;7.53;4.97;;;;;;;5.92;100.00;99455.09;31219846;28;20544;-76
2023/02/19 19:39:35;;;;;;;13.03;4.57;;;;;;;6.10;100.00;99446.81;31239924;28;20049;-77
2023/02/19 19:54:39;;;;;;;16.97;8.33;;;;;;;6.37;100.00;99447.66;31227520;28;20416;-77
2023/02/19 20:09:41;;;;;;;11.77;5.33;;;;;;;6.23;100.00;99453.19;31178700;28;20045;-75
2023/02/19 20:24:43;;;;;;;14.13;5.23;;;;;;;5.99;100.00;99432.69;31233565;28;20452;-76
2023/02/19 20:39:45;;;;;;;8.87;4.40;;;;;;;5.74;100.00;99444.50;31227482;28;20088;-76
2023/02/19 20:54:46;;;;;;;8.60;4.00;;;;;;;5.59;100.00;99437.72;31237162;28;20103;-75
2023/02/19 21:09:49;;;;;;;10.67;3.63;;;;;;;5.71;100.00;99445.28;31220317;28;20053;-76
2023/02/19 21:24:52;;;;;;;13.90;5.37;;;;;;;5.93;100.00;99440.47;31228900;28;20089;-77
2023/02/19 21:39:54;;;;;;;14.53;5.43;;;;;;;5.78;100.00;99434.44;31216221;28;20089;-77
2023/02/19 21:54:56;;;;;;;10.13;4.90;;;;;;;5.61;100.00;99446.19;31223637;28;20049;-75
2023/02/19 22:09:58;;;;;;;16.73;7.90;;;;;;;5.21;100.00;99449.59;31236574;28;20391;-76
2023/02/19 22:25:00;;;;;;;13.20;6.20;;;;;;;4.95;100.00;99441.00;31219942;28;20057;-77
2023/02/19 22:40:02;;;;;;;12.87;6.80;;;;;;;4.80;100.00;99434.16;31227188;28;20104;-77
2023/02/19 22:55:04;;;;;;;19.97;7.57;;;;;;;4.87;100.00;99420.69;31199482;28;20566;-76
2023/02/19 23:10:07;;;;;;;15.03;6.43;;;;;;;4.99;100.00;99422.13;31228706;28;20436;-77
2023/02/19 23:25:10;;;;;;;12.53;5.53;;;;;;;4.95;100.00;99448.31;31224177;28;20057;-79
2023/02/19 23:40:12;;;;;;;11.77;6.70;;;;;;;5.10;100.00;99439.72;31221693;28;20111;-77
2023/02/19 23:55:14;;;;;;;15.83;7.03;;;;;;;5.16;100.00;99420.47;31221711;28;20107;-76
